createdAt,value
2022-09-14T00:01:49.483Z,12.92
2022-09-14T00:04:18.333Z,12.86
2022-09-14T00:06:45.116Z,12.91
2022-09-14T00:09:16.184Z,12.87
2022-09-14T00:11:42.586Z,12.83
2022-09-14T00:14:08.975Z,12.85
2022-09-14T00:16:38.060Z,12.85
2022-09-14T00:19:15.876Z,12.78
2022-09-14T00:21:42.473Z,12.72
2022-09-14T00:24:11.265Z,12.68
2022-09-14T00:26:37.720Z,12.68
2022-09-14T00:29:05.141Z,12.60
2022-09-14T00:31:34.573Z,12.52
2022-09-14T00:34:01.854Z,12.53
2022-09-14T00:36:29.808Z,12.51
2022-09-14T00:38:56.996Z,12.48
2022-09-14T00:41:33.554Z,12.42
2022-09-14T00:44:04.536Z,12.42
2022-09-14T00:46:35.131Z,12.38
2022-09-14T00:49:04.035Z,12.34
2022-09-14T00:51:33.261Z,12.31
2022-09-14T00:54:04.027Z,12.21
2022-09-14T00:56:31.228Z,12.09
2022-09-14T00:58:59.461Z,12.17
2022-09-14T01:01:26.789Z,12.01
2022-09-14T01:03:53.156Z,11.95
2022-09-14T01:06:46.772Z,11.89
2022-09-14T01:09:15.810Z,11.88
2022-09-14T01:11:58.558Z,11.81
2022-09-14T01:14:49.022Z,11.79
2022-09-14T01:17:26.706Z,11.78
2022-09-14T01:20:36.311Z,11.78
2022-09-14T01:23:14.176Z,11.74
2022-09-14T01:26:09.244Z,11.71
2022-09-14T01:28:41.262Z,11.69
2022-09-14T01:31:15.776Z,11.69
2022-09-14T01:33:53.529Z,11.73
2022-09-14T01:36:20.523Z,11.77
2022-09-14T01:38:53.668Z,11.73
2022-09-14T01:41:24.878Z,11.82
2022-09-14T01:44:04.030Z,11.80
2022-09-14T01:46:36.866Z,11.81
2022-09-14T01:49:11.888Z,11.83
2022-09-14T01:51:45.595Z,11.81
2022-09-14T01:54:23.586Z,11.86
2022-09-14T01:56:55.385Z,11.89
2022-09-14T01:59:29.255Z,11.93
2022-09-14T02:02:20.558Z,11.76
2022-09-14T02:04:53.076Z,11.74
2022-09-14T02:07:20.186Z,11.67
2022-09-14T02:09:48.931Z,11.61
2022-09-14T02:12:16.404Z,11.56
2022-09-14T02:14:43.924Z,11.50
2022-09-14T02:17:10.436Z,11.54
2022-09-14T02:19:43.395Z,11.48
2022-09-14T02:22:09.710Z,11.48
2022-09-14T02:24:36.645Z,11.52
2022-09-14T02:27:04.331Z,11.54
2022-09-14T02:29:31.184Z,11.51
2022-09-14T02:32:30.429Z,11.49
2022-09-14T02:35:21.922Z,11.54
2022-09-14T02:37:54.134Z,11.59
2022-09-14T02:40:28.609Z,11.62
2022-09-14T02:43:23.407Z,11.56
2022-09-14T02:46:01.598Z,11.64
2022-09-14T02:48:58.547Z,11.72
2022-09-14T02:51:29.255Z,11.73
2022-09-14T02:54:06.618Z,11.73
2022-09-14T02:56:34.117Z,11.71
2022-09-14T02:59:00.633Z,11.72
2022-09-14T03:01:27.890Z,11.69
2022-09-14T03:03:54.485Z,11.75
2022-09-14T03:06:20.833Z,11.77
2022-09-14T03:08:47.813Z,11.66
2022-09-14T03:11:14.172Z,11.64
2022-09-14T03:13:41.024Z,11.51
2022-09-14T03:16:13.478Z,11.45
2022-09-14T03:18:40.150Z,11.45
2022-09-14T03:21:11.981Z,11.46
2022-09-14T03:23:49.303Z,11.50
2022-09-14T03:26:19.248Z,11.50
2022-09-14T03:28:50.849Z,11.52
2022-09-14T03:31:17.481Z,11.50
2022-09-14T03:33:43.902Z,11.49
2022-09-14T03:36:12.757Z,11.51
2022-09-14T03:38:43.255Z,11.51
2022-09-14T03:41:10.583Z,11.46
2022-09-14T03:43:37.804Z,11.39
2022-09-14T03:46:08.513Z,11.36
2022-09-14T03:48:34.884Z,11.35
2022-09-14T03:51:02.653Z,11.36
2022-09-14T03:53:29.440Z,11.30
2022-09-14T03:55:55.985Z,11.28
2022-09-14T03:58:22.797Z,11.24
2022-09-14T04:00:49.608Z,11.21
2022-09-14T04:03:16.123Z,11.14
2022-09-14T04:05:42.669Z,11.18
2022-09-14T04:08:09.048Z,11.21
2022-09-14T04:10:35.339Z,11.14
2022-09-14T04:13:01.908Z,11.13
2022-09-14T04:15:28.286Z,11.15
2022-09-14T04:17:54.576Z,11.13
2022-09-14T04:20:20.883Z,11.11
2022-09-14T04:22:47.435Z,11.11
2022-09-14T04:25:13.763Z,11.20
2022-09-14T04:27:40.103Z,11.21
2022-09-14T04:30:06.882Z,11.26
2022-09-14T04:32:34.560Z,11.33
2022-09-14T04:35:01.265Z,11.27
2022-09-14T04:37:31.159Z,11.30
2022-09-14T04:39:57.497Z,11.37
2022-09-14T04:42:23.920Z,11.40
2022-09-14T04:44:50.222Z,11.46
2022-09-14T04:47:16.597Z,11.48
2022-09-14T04:49:42.985Z,11.57
2022-09-14T04:52:09.438Z,11.61
2022-09-14T04:54:35.752Z,11.64
2022-09-14T04:57:02.148Z,11.67
2022-09-14T04:59:28.459Z,11.75
2022-09-14T05:01:54.809Z,11.81
2022-09-14T05:04:21.144Z,11.81
2022-09-14T05:06:47.707Z,11.79
2022-09-14T05:09:16.945Z,11.79
2022-09-14T05:11:43.744Z,11.88
2022-09-14T05:14:12.977Z,11.90
2022-09-14T05:16:40.608Z,11.91
2022-09-14T05:19:10.868Z,11.91
2022-09-14T05:21:37.981Z,11.96
2022-09-14T05:24:07.945Z,12.02
2022-09-14T05:26:34.267Z,12.02
2022-09-14T05:29:02.218Z,12.07
2022-09-14T05:31:30.900Z,12.07
2022-09-14T05:33:57.920Z,12.03
2022-09-14T05:36:25.096Z,12.09
2022-09-14T05:38:51.881Z,12.15
2022-09-14T05:41:18.395Z,12.15
2022-09-14T05:43:45.317Z,12.17
2022-09-14T05:46:14.051Z,12.17
2022-09-14T05:48:41.428Z,12.22
2022-09-14T05:51:28.343Z,12.22
2022-09-14T05:53:57.734Z,12.23
2022-09-14T05:56:28.602Z,12.26
2022-09-14T05:58:55.513Z,12.31
2022-09-14T06:01:24.503Z,12.35
2022-09-14T06:03:53.900Z,12.39
2022-09-14T06:06:20.893Z,12.37
2022-09-14T06:08:51.005Z,12.37
2022-09-14T06:11:20.034Z,12.43
2022-09-14T06:13:49.907Z,12.47
2022-09-14T06:16:19.595Z,12.49
2022-09-14T06:18:46.600Z,12.50
2022-09-14T06:21:18.826Z,12.57
2022-09-14T06:23:46.482Z,12.65
2022-09-14T06:26:13.267Z,12.70
2022-09-14T06:28:39.936Z,12.78
2022-09-14T06:31:07.606Z,12.88
2022-09-14T06:33:34.843Z,12.94
2022-09-14T06:36:12.113Z,13.02
2022-09-14T06:38:39.729Z,13.04
2022-09-14T06:41:09.070Z,13.17
2022-09-14T06:43:38.814Z,13.16
2022-09-14T06:46:15.296Z,13.21
2022-09-14T06:49:06.636Z,13.22
2022-09-14T06:51:35.831Z,13.28
2022-09-14T06:54:03.570Z,13.29
2022-09-14T06:56:35.663Z,13.39
2022-09-14T06:59:02.500Z,13.47
2022-09-14T07:01:29.852Z,13.50
2022-09-14T07:03:57.079Z,13.55
2022-09-14T07:06:25.663Z,13.61
2022-09-14T07:08:52.883Z,13.69
2022-09-14T07:11:22.488Z,13.81
2022-09-14T07:13:49.190Z,13.93
2022-09-14T07:16:15.697Z,13.93
2022-09-14T07:18:42.168Z,14.12
2022-09-14T07:21:17.158Z,14.20
2022-09-14T07:23:45.395Z,14.28
2022-09-14T07:26:17.559Z,14.35
2022-09-14T07:28:46.900Z,14.48
2022-09-14T07:31:31.628Z,14.59
2022-09-14T07:33:59.969Z,14.49
2022-09-14T07:36:29.447Z,14.62
2022-09-14T07:38:58.169Z,14.66
2022-09-14T07:41:27.194Z,14.77
2022-09-14T07:43:56.789Z,14.87
2022-09-14T07:46:23.966Z,14.98
2022-09-14T07:48:55.588Z,15.05
2022-09-14T07:51:22.093Z,15.26
2022-09-14T07:53:48.389Z,15.42
2022-09-14T07:56:16.438Z,15.62
2022-09-14T07:58:43.233Z,15.66
2022-09-14T08:01:12.519Z,15.66
2022-09-14T08:03:45.820Z,15.83
2022-09-14T08:06:19.130Z,16.04
2022-09-14T08:08:48.024Z,16.24
2022-09-14T08:11:29.634Z,16.34
2022-09-14T08:13:58.805Z,16.28
2022-09-14T08:16:27.741Z,16.11
2022-09-14T08:19:00.059Z,15.85
2022-09-14T08:21:27.911Z,15.70
2022-09-14T08:23:54.963Z,15.68
2022-09-14T08:26:23.313Z,15.64
2022-09-14T08:28:50.825Z,15.67
2022-09-14T08:31:20.949Z,15.67
2022-09-14T08:33:52.443Z,15.76
2022-09-14T08:36:21.167Z,15.76
2022-09-14T08:38:48.312Z,15.78
2022-09-14T08:41:35.265Z,15.65
2022-09-14T08:44:23.607Z,15.61
2022-09-14T08:46:55.803Z,15.74
2022-09-14T08:49:34.282Z,15.90
2022-09-14T08:52:00.704Z,16.02
2022-09-14T08:54:27.070Z,16.15
2022-09-14T08:57:09.305Z,16.01
2022-09-14T08:59:55.045Z,16.01
2022-09-14T09:02:36.055Z,16.10
2022-09-14T09:05:41.480Z,16.35
2022-09-14T09:08:19.537Z,16.38
2022-09-14T09:10:47.153Z,16.16
2022-09-14T09:13:23.071Z,16.33
2022-09-14T09:15:52.815Z,16.21
2022-09-14T09:18:31.646Z,16.08
2022-09-14T09:21:04.055Z,16.03
2022-09-14T09:23:33.062Z,16.23
2022-09-14T09:26:15.812Z,16.40
2022-09-14T09:28:51.302Z,16.39
2022-09-14T09:31:19.778Z,16.38
2022-09-14T09:33:49.485Z,16.73
2022-09-14T09:36:16.163Z,17.10
2022-09-14T09:38:42.567Z,17.32
2022-09-14T09:41:14.799Z,17.09
2022-09-14T09:44:00.375Z,17.02
2022-09-14T09:46:32.490Z,17.07
2022-09-14T09:49:02.975Z,16.93
2022-09-14T09:51:32.670Z,16.92
2022-09-14T09:54:13.937Z,16.75
2022-09-14T09:57:02.441Z,16.93
2022-09-14T09:59:36.353Z,16.97
2022-09-14T10:02:29.177Z,16.71
2022-09-14T10:05:03.894Z,16.82
2022-09-14T10:07:33.272Z,16.51
2022-09-14T10:10:05.537Z,16.56
2022-09-14T10:12:32.686Z,16.57
2022-09-14T10:15:16.539Z,16.36
2022-09-14T10:18:16.655Z,16.34
2022-09-14T10:20:53.007Z,16.37
2022-09-14T10:23:19.386Z,16.30
2022-09-14T10:25:52.375Z,16.26
2022-09-14T10:28:28.284Z,16.37
2022-09-14T10:31:25.596Z,16.44
2022-09-14T10:33:56.410Z,16.57
2022-09-14T10:36:25.778Z,16.78
2022-09-14T10:38:58.374Z,16.75
2022-09-14T10:41:37.709Z,16.79
2022-09-14T10:44:37.641Z,16.55
2022-09-14T10:47:09.778Z,16.53
2022-09-14T10:50:06.962Z,16.37
2022-09-14T10:52:39.377Z,16.36
2022-09-14T10:55:34.261Z,16.34
2022-09-14T10:58:18.026Z,16.10
2022-09-14T11:00:59.598Z,15.90
2022-09-14T11:03:46.178Z,15.89
2022-09-14T11:06:23.305Z,15.85
2022-09-14T11:08:57.488Z,15.92
2022-09-14T11:11:40.114Z,15.91
2022-09-14T11:14:33.303Z,15.89
2022-09-14T11:17:21.210Z,15.99
2022-09-14T11:20:15.504Z,16.10
2022-09-14T11:22:53.158Z,16.24
2022-09-14T11:25:27.373Z,16.44
2022-09-14T11:27:59.568Z,16.35
2022-09-14T11:31:07.456Z,16.48
2022-09-14T11:33:39.551Z,16.45
2022-09-14T11:36:34.598Z,16.60
2022-09-14T11:39:31.729Z,16.56
2022-09-14T11:42:20.690Z,16.47
2022-09-14T11:44:50.137Z,16.46
2022-09-14T11:47:18.810Z,16.63
2022-09-14T11:50:17.720Z,16.71
2022-09-14T11:52:43.999Z,16.78
2022-09-14T11:55:17.219Z,16.83
2022-09-14T11:57:45.781Z,16.88
2022-09-14T12:00:24.046Z,17.00
2022-09-14T12:03:21.531Z,17.12
2022-09-14T12:05:49.851Z,17.10
2022-09-14T12:08:39.612Z,16.98
2022-09-14T12:11:08.872Z,16.95
2022-09-14T12:13:38.453Z,16.80
2022-09-14T12:16:07.483Z,16.82
2022-09-14T12:18:38.962Z,16.74
2022-09-14T12:21:24.026Z,16.67
2022-09-14T12:23:56.944Z,16.66
2022-09-14T12:26:23.198Z,16.48
2022-09-14T12:28:52.196Z,16.25
2022-09-14T12:31:52.590Z,16.22
2022-09-14T12:34:33.084Z,16.11
2022-09-14T12:37:27.054Z,16.21
2022-09-14T12:40:36.491Z,16.17
2022-09-14T12:43:37.144Z,16.09
2022-09-14T12:46:10.601Z,16.09
2022-09-14T12:48:49.236Z,16.16
2022-09-14T12:51:31.325Z,16.19
2022-09-14T12:54:25.977Z,16.26
2022-09-14T12:57:11.131Z,16.25
2022-09-14T12:59:57.686Z,16.17
2022-09-14T13:02:36.062Z,16.17
2022-09-14T13:05:07.897Z,15.97
2022-09-14T13:07:36.095Z,16.13
2022-09-14T13:10:06.272Z,16.11
2022-09-14T13:12:41.152Z,16.03
2022-09-14T13:15:18.403Z,16.06
2022-09-14T13:18:03.540Z,16.06
2022-09-14T13:20:33.749Z,16.16
2022-09-14T13:23:00.792Z,16.10
2022-09-14T13:25:34.428Z,16.25
2022-09-14T13:28:21.491Z,16.31
2022-09-14T13:30:56.678Z,16.26
2022-09-14T13:33:23.793Z,16.09
2022-09-14T13:36:02.061Z,16.17
2022-09-14T13:38:37.484Z,16.37
2022-09-14T13:41:13.541Z,16.24
2022-09-14T13:43:41.661Z,16.26
2022-09-14T13:46:09.719Z,16.26
2022-09-14T13:48:39.821Z,16.53
2022-09-14T13:51:07.467Z,16.70
2022-09-14T13:53:57.486Z,16.83
2022-09-14T13:56:31.084Z,16.81
2022-09-14T13:59:06.707Z,16.76
2022-09-14T14:01:40.799Z,16.90
2022-09-14T14:04:23.982Z,16.93
2022-09-14T14:07:12.241Z,16.56
2022-09-14T14:09:50.488Z,16.34
2022-09-14T14:12:37.389Z,16.28
2022-09-14T14:15:26.528Z,16.34
2022-09-14T14:17:54.131Z,16.26
2022-09-14T14:20:26.352Z,16.36
2022-09-14T14:23:07.929Z,16.50
2022-09-14T14:25:47.520Z,16.43
2022-09-14T14:28:28.503Z,16.51
2022-09-14T14:30:56.882Z,16.74
2022-09-14T14:33:23.675Z,17.02
2022-09-14T14:35:53.692Z,16.88
2022-09-14T14:38:22.336Z,17.08
2022-09-14T14:40:49.919Z,17.06
2022-09-14T14:43:21.866Z,17.06
2022-09-14T14:45:48.344Z,17.27
2022-09-14T14:48:14.698Z,17.33
2022-09-14T14:50:41.185Z,17.34
2022-09-14T14:53:07.634Z,17.37
2022-09-14T14:55:37.541Z,17.34
2022-09-14T14:58:08.536Z,17.24
2022-09-14T15:00:36.718Z,17.24
2022-09-14T15:03:03.301Z,17.06
2022-09-14T15:05:30.956Z,16.99
2022-09-14T15:07:57.948Z,17.19
2022-09-14T15:10:25.973Z,17.12
2022-09-14T15:12:52.414Z,16.85
2022-09-14T15:15:23.725Z,16.86
2022-09-14T15:17:50.877Z,16.87
2022-09-14T15:20:19.544Z,16.87
2022-09-14T15:22:47.399Z,16.79
2022-09-14T15:25:14.499Z,16.79
2022-09-14T15:27:41.278Z,16.79
2022-09-14T15:30:09.097Z,16.84
2022-09-14T15:32:36.400Z,16.78
2022-09-14T15:35:03.286Z,16.82
2022-09-14T15:37:29.667Z,16.74
2022-09-14T15:39:56.009Z,16.71
2022-09-14T15:42:22.748Z,16.66
2022-09-14T15:44:49.028Z,16.64
2022-09-14T15:47:15.418Z,16.69
2022-09-14T15:49:45.094Z,16.71
2022-09-14T15:52:12.282Z,16.71
2022-09-14T15:54:38.970Z,16.58
2022-09-14T15:57:07.999Z,16.68
2022-09-14T15:59:34.755Z,16.74
2022-09-14T16:02:01.093Z,16.69
2022-09-14T16:04:27.560Z,16.61
2022-09-14T16:06:53.851Z,16.67
2022-09-14T16:09:22.201Z,16.60
2022-09-14T16:11:48.714Z,16.44
2022-09-14T16:14:15.070Z,16.43
2022-09-14T16:16:41.694Z,16.49
2022-09-14T16:19:11.674Z,16.58
2022-09-14T16:21:38.361Z,16.50
2022-09-14T16:24:07.218Z,16.59
2022-09-14T16:26:37.925Z,16.61
2022-09-14T16:29:06.168Z,16.49
2022-09-14T16:31:35.101Z,16.38
2022-09-14T16:34:06.637Z,16.34
2022-09-14T16:36:38.097Z,16.28
2022-09-14T16:39:07.076Z,16.21
2022-09-14T16:41:33.617Z,16.21
2022-09-14T16:44:02.514Z,16.19
2022-09-14T16:46:30.133Z,16.23
2022-09-14T16:48:58.535Z,16.19
2022-09-14T16:51:27.003Z,16.11
2022-09-14T16:53:53.937Z,16.08
2022-09-14T16:56:25.529Z,16.12
2022-09-14T16:58:54.128Z,15.97
2022-09-14T17:01:29.663Z,15.94
2022-09-14T17:03:58.710Z,15.92
2022-09-14T17:06:30.296Z,15.95
2022-09-14T17:09:03.359Z,15.88
2022-09-14T17:11:32.096Z,15.83
2022-09-14T17:13:58.709Z,15.74
2022-09-14T17:16:26.513Z,15.67
2022-09-14T17:18:56.232Z,15.49
2022-09-14T17:21:25.407Z,15.39
2022-09-14T17:23:52.391Z,15.34
2022-09-14T17:26:20.402Z,15.34
2022-09-14T17:28:49.502Z,15.35
2022-09-14T17:31:18.738Z,15.38
2022-09-14T17:33:45.852Z,15.41
2022-09-14T17:36:12.236Z,15.42
2022-09-14T17:38:40.879Z,15.42
2022-09-14T17:41:10.291Z,15.38
2022-09-14T17:43:37.866Z,15.31
2022-09-14T17:46:05.696Z,15.31
2022-09-14T17:48:37.044Z,15.30
2022-09-14T17:51:09.295Z,15.40
2022-09-14T17:53:40.750Z,15.44
2022-09-14T17:56:09.122Z,15.48
2022-09-14T17:58:36.399Z,15.44
2022-09-14T18:01:10.247Z,15.45
2022-09-14T18:03:38.792Z,15.41
2022-09-14T18:06:07.162Z,15.31
2022-09-14T18:08:33.781Z,15.31
2022-09-14T18:11:12.199Z,15.26
2022-09-14T18:13:46.423Z,15.27
2022-09-14T18:16:14.759Z,15.30
2022-09-14T18:18:41.491Z,15.30
2022-09-14T18:21:08.786Z,15.20
2022-09-14T18:23:35.993Z,15.23
2022-09-14T18:26:04.224Z,15.25
2022-09-14T18:28:31.029Z,15.25
2022-09-14T18:31:04.608Z,15.26
2022-09-14T18:33:31.352Z,15.25
2022-09-14T18:35:57.738Z,15.28
2022-09-14T18:38:24.430Z,15.31
2022-09-14T18:40:50.716Z,15.33
2022-09-14T18:43:17.145Z,15.22
2022-09-14T18:45:44.711Z,15.13
2022-09-14T18:48:11.732Z,15.09
2022-09-14T18:50:38.888Z,15.02
2022-09-14T18:53:05.429Z,14.85
2022-09-14T18:55:33.079Z,14.80
2022-09-14T18:58:00.488Z,14.71
2022-09-14T19:00:27.136Z,14.66
2022-09-14T19:02:55.215Z,14.60
2022-09-14T19:05:23.512Z,14.60
2022-09-14T19:07:49.911Z,14.53
2022-09-14T19:10:16.807Z,14.46
2022-09-14T19:12:43.448Z,14.35
2022-09-14T19:15:11.254Z,14.30
2022-09-14T19:17:38.152Z,14.25
2022-09-14T19:20:06.673Z,14.14
2022-09-14T19:22:33.385Z,14.04
2022-09-14T19:24:59.695Z,13.92
2022-09-14T19:27:26.226Z,13.88
2022-09-14T19:29:52.575Z,13.87
2022-09-14T19:32:19.305Z,13.78
2022-09-14T19:34:45.618Z,13.68
2022-09-14T19:37:11.881Z,13.68
2022-09-14T19:39:38.203Z,13.64
2022-09-14T19:42:04.770Z,13.54
2022-09-14T19:44:31.084Z,13.42
2022-09-14T19:46:57.347Z,13.41
2022-09-14T19:49:25.098Z,13.36
2022-09-14T19:51:53.456Z,13.30
2022-09-14T19:54:20.330Z,13.18
2022-09-14T19:56:46.748Z,13.14
2022-09-14T19:59:13.604Z,13.06
2022-09-14T20:01:40.487Z,13.00
2022-09-14T20:04:07.851Z,13.02
2022-09-14T20:06:38.003Z,13.00
2022-09-14T20:09:07.438Z,12.98
2022-09-14T20:11:36.007Z,12.87
2022-09-14T20:14:04.290Z,12.86
2022-09-14T20:16:34.146Z,12.80
2022-09-14T20:19:10.121Z,12.70
2022-09-14T20:21:37.444Z,12.63
2022-09-14T20:24:19.306Z,12.55
2022-09-14T20:26:47.541Z,12.58
2022-09-14T20:29:15.193Z,12.64
2022-09-14T20:31:41.571Z,12.59
2022-09-14T20:34:07.903Z,12.57
2022-09-14T20:36:34.311Z,12.54
2022-09-14T20:39:00.793Z,12.55
2022-09-14T20:41:30.059Z,12.65
2022-09-14T20:43:56.855Z,12.57
2022-09-14T20:46:44.325Z,12.46
2022-09-14T20:49:13.265Z,12.32
2022-09-14T20:51:39.994Z,12.28
2022-09-14T20:54:07.884Z,12.28
2022-09-14T20:56:35.489Z,12.29
2022-09-14T20:59:04.200Z,12.22
2022-09-14T21:01:34.628Z,12.15
2022-09-14T21:04:04.526Z,12.18
2022-09-14T21:06:31.213Z,12.17
2022-09-14T21:08:59.775Z,12.18
2022-09-14T21:11:26.846Z,12.13
2022-09-14T21:13:55.627Z,12.03
2022-09-14T21:16:27.545Z,12.00
2022-09-14T21:19:02.800Z,11.97
2022-09-14T21:21:30.347Z,11.92
2022-09-14T21:23:57.970Z,11.87
2022-09-14T21:26:25.514Z,11.82
2022-09-14T21:28:57.261Z,11.73
2022-09-14T21:31:25.095Z,11.67
2022-09-14T21:33:54.123Z,11.77
2022-09-14T21:36:23.228Z,11.75
2022-09-14T21:39:00.080Z,11.59
2022-09-14T21:41:29.047Z,11.65
2022-09-14T21:43:57.127Z,11.67
2022-09-14T21:46:24.632Z,11.69
2022-09-14T21:48:51.937Z,11.69
2022-09-14T21:51:29.978Z,11.69
2022-09-14T21:54:01.972Z,11.62
2022-09-14T21:56:30.393Z,11.60
2022-09-14T21:58:59.258Z,11.57
2022-09-14T22:01:26.837Z,11.53
2022-09-14T22:03:54.448Z,11.66
2022-09-14T22:06:23.545Z,11.72
2022-09-14T22:08:52.096Z,11.71
2022-09-14T22:11:24.364Z,11.75
2022-09-14T22:14:20.371Z,11.74
2022-09-14T22:16:47.559Z,11.70
2022-09-14T22:19:16.580Z,11.69
2022-09-14T22:21:43.854Z,11.66
2022-09-14T22:24:13.862Z,11.76
2022-09-14T22:26:40.763Z,11.76
2022-09-14T22:29:12.738Z,11.81
2022-09-14T22:31:41.076Z,11.83
2022-09-14T22:34:08.030Z,11.83
2022-09-14T22:36:34.656Z,11.77
2022-09-14T22:39:01.095Z,11.69
2022-09-14T22:41:28.350Z,11.69
2022-09-14T22:43:55.314Z,11.70
2022-09-14T22:46:23.044Z,11.73
2022-09-14T22:48:50.426Z,11.70
2022-09-14T22:51:20.987Z,11.75
2022-09-14T22:53:47.327Z,11.75
2022-09-14T22:56:21.487Z,11.81
2022-09-14T22:58:48.692Z,11.81
2022-09-14T23:01:24.302Z,11.68
2022-09-14T23:04:11.355Z,11.58
2022-09-14T23:06:43.879Z,11.57
2022-09-14T23:09:13.392Z,11.68
2022-09-14T23:11:39.736Z,11.70
2022-09-14T23:14:06.056Z,11.76
2022-09-14T23:16:32.458Z,11.86
2022-09-14T23:19:04.654Z,11.97
2022-09-14T23:21:31.463Z,12.05
2022-09-14T23:24:04.144Z,12.08
2022-09-14T23:26:30.698Z,12.16
2022-09-14T23:28:59.692Z,12.19
2022-09-14T23:31:28.192Z,12.24
2022-09-14T23:33:55.850Z,12.28
2022-09-14T23:36:23.429Z,12.40
2022-09-14T23:38:50.235Z,12.38
2022-09-14T23:41:18.201Z,12.34
2022-09-14T23:43:44.677Z,12.43
2022-09-14T23:46:11.227Z,12.42
2022-09-14T23:48:37.560Z,12.50
2022-09-14T23:51:05.858Z,12.51
2022-09-14T23:53:32.604Z,12.53
2022-09-14T23:55:59.184Z,12.52
2022-09-14T23:58:25.567Z,12.58
